地図

経路データ

SID SEASON NUMBER BASIN SUBBASIN NAME ISO_TIME NATURE LAT LON WMO_WIND WMO_PRES WMO_AGENCY TRACK_TYPE DIST2LAND LANDFALL IFLAG USA_AGENCY USA_ATCF_ID USA_LAT USA_LON USA_RECORD USA_STATUS USA_WIND USA_PRES USA_SSHS USA_R34_NE USA_R34_SE USA_R34_SW USA_R34_NW USA_R50_NE USA_R50_SE USA_R50_SW USA_R50_NW USA_R64_NE USA_R64_SE USA_R64_SW USA_R64_NW USA_POCI USA_ROCI USA_RMW USA_EYE TOKYO_LAT TOKYO_LON TOKYO_GRADE TOKYO_WIND TOKYO_PRES TOKYO_R50_DIR TOKYO_R50_LONG TOKYO_R50_SHORT TOKYO_R30_DIR TOKYO_R30_LONG TOKYO_R30_SHORT TOKYO_LAND CMA_LAT CMA_LON CMA_CAT CMA_WIND CMA_PRES HKO_LAT HKO_LON HKO_CAT HKO_WIND HKO_PRES NEWDELHI_LAT NEWDELHI_LON NEWDELHI_GRADE NEWDELHI_WIND NEWDELHI_PRES NEWDELHI_CI NEWDELHI_DP NEWDELHI_POCI REUNION_LAT REUNION_LON REUNION_TYPE REUNION_WIND REUNION_PRES REUNION_TNUM REUNION_CI REUNION_RMW REUNION_R34_NE REUNION_R34_SE REUNION_R34_SW REUNION_R34_NW REUNION_R50_NE REUNION_R50_SE REUNION_R50_SW REUNION_R50_NW REUNION_R64_NE REUNION_R64_SE REUNION_R64_SW REUNION_R64_NW BOM_LAT BOM_LON BOM_TYPE BOM_WIND BOM_PRES BOM_TNUM BOM_CI BOM_RMW BOM_R34_NE BOM_R34_SE BOM_R34_SW BOM_R34_NW BOM_R50_NE BOM_R50_SE BOM_R50_SW BOM_R50_NW BOM_R64_NE BOM_R64_SE BOM_R64_SW BOM_R64_NW BOM_ROCI BOM_POCI BOM_EYE BOM_POS_METHOD BOM_PRES_METHOD NADI_LAT NADI_LON NADI_CAT NADI_WIND NADI_PRES WELLINGTON_LAT WELLINGTON_LON WELLINGTON_WIND WELLINGTON_PRES DS824_LAT DS824_LON DS824_STAGE DS824_WIND DS824_PRES TD9636_LAT TD9636_LON TD9636_STAGE TD9636_WIND TD9636_PRES TD9635_LAT TD9635_LON TD9635_WIND TD9635_PRES TD9635_ROCI NEUMANN_LAT NEUMANN_LON NEUMANN_CLASS NEUMANN_WIND NEUMANN_PRES MLC_LAT MLC_LON MLC_CLASS MLC_WIND MLC_PRES USA_GUST BOM_GUST BOM_GUST_PER REUNION_GUST REUNION_GUST_PER USA_SEAHGT USA_SEARAD_NE USA_SEARAD_SE USA_SEARAD_SW USA_SEARAD_NW STORM_SPEED STORM_DIR
1938222N11301 1938 36 NA NA NOT_NAMED 1938-08-10 00:00:00 TS 11.2000 -58.6000 35 hurdat_atl main 268 171 O_____________ hurdat_atl AL031938 11.2000 -58.6000 TS 35 0 21 280
1938222N11301 1938 36 NA NA NOT_NAMED 1938-08-10 03:00:00 TS 11.3883 -59.6522 main 162 104 P_____________ AL031938 11.3883 -59.6522 TS 37 0 21 281
1938222N11301 1938 36 NA CS NOT_NAMED 1938-08-10 06:00:00 TS 11.6000 -60.7000 40 hurdat_atl main 105 101 O_____________ hurdat_atl AL031938 11.6000 -60.7000 TS 40 0 21 283
1938222N11301 1938 36 NA CS NOT_NAMED 1938-08-10 09:00:00 TS 11.8620 -61.7429 main 134 134 P_____________ AL031938 11.8620 -61.7429 TS 42 0 21 286
1938222N11301 1938 36 NA CS NOT_NAMED 1938-08-10 12:00:00 TS 12.2000 -62.8000 45 hurdat_atl main 167 167 O_____________ hurdat_atl AL031938 12.2000 -62.8000 TS 45 0 22 290
1938222N11301 1938 36 NA CS NOT_NAMED 1938-08-10 15:00:00 TS 12.6196 -63.8853 main 225 225 P_____________ AL031938 12.6196 -63.8853 TS 45 0 23 293
1938222N11301 1938 36 NA CS NOT_NAMED 1938-08-10 18:00:00 TS 13.1000 -65.0000 45 hurdat_atl main 293 293 O_____________ hurdat_atl AL031938 13.1000 -65.0000 TS 45 0 24 294
1938222N11301 1938 36 NA CS NOT_NAMED 1938-08-10 21:00:00 TS 13.5693 -66.1209 main 335 335 P_____________ AL031938 13.5693 -66.1210 TS 47 0 25 294
1938222N11301 1938 36 NA CS NOT_NAMED 1938-08-11 00:00:00 TS 14.1000 -67.3000 50 hurdat_atl main 343 323 O_____________ hurdat_atl AL031938 14.1000 -67.3000 TS 50 0 26 296
1938222N11301 1938 36 NA CS NOT_NAMED 1938-08-11 03:00:00 TS 14.7194 -68.5631 main 323 299 P_____________ AL031938 14.7194 -68.5631 TS 52 0 28 297
1938222N11301 1938 36 NA CS NOT_NAMED 1938-08-11 06:00:00 TS 15.4000 -69.9000 55 hurdat_atl main 293 169 O_____________ hurdat_atl AL031938 15.4000 -69.9000 TS 55 0 30 298
1938222N11301 1938 36 NA CS NOT_NAMED 1938-08-11 09:00:00 TS 16.1069 -71.2854 main 168 138 P_____________ AL031938 16.1069 -71.2854 TS 57 0 30 297
1938222N11301 1938 36 NA CS NOT_NAMED 1938-08-11 12:00:00 TS 16.8000 -72.7000 60 hurdat_atl main 145 67 O_____________ hurdat_atl AL031938 16.8000 -72.7000 TS 60 0 30 296
1938222N11301 1938 36 NA CS NOT_NAMED 1938-08-11 15:00:00 TS 17.4518 -74.1151 main 59 59 P_____________ AL031938 17.4518 -74.1151 TS 62 0 29 294
1938222N11301 1938 36 NA CS NOT_NAMED 1938-08-11 18:00:00 TS 18.0000 -75.5000 65 hurdat_atl main 74 10 O_____________ hurdat_atl AL031938 18.0000 -75.5000 HU 65 1 28 290
1938222N11301 1938 36 NA CS NOT_NAMED 1938-08-11 21:00:00 TS 18.4172 -76.8679 main 0 0 P_____________ AL031938 18.4172 -76.8679 HU 67 1 26 286
1938222N11301 1938 36 NA CS NOT_NAMED 1938-08-12 00:00:00 TS 18.7000 -78.1000 70 hurdat_atl main 33 33 O_____________ hurdat_atl AL031938 18.7000 -78.1000 HU 70 1 22 283
1938222N11301 1938 36 NA CS NOT_NAMED 1938-08-12 03:00:00 TS 18.8938 -79.1180 main 101 101 P_____________ AL031938 18.8938 -79.1180 HU 75 1 18 279
1938222N11301 1938 36 NA CS NOT_NAMED 1938-08-12 06:00:00 TS 19.0000 -80.0000 80 hurdat_atl main 190 190 O_____________ hurdat_atl AL031938 19.0000 -80.0000 HU 80 1 17 275
1938222N11301 1938 36 NA CS NOT_NAMED 1938-08-12 09:00:00 TS 19.0347 -80.8882 main 278 278 P_____________ AL031938 19.0347 -80.8882 HU 82 1 16 274
1938222N11301 1938 36 NA CS NOT_NAMED 1938-08-12 12:00:00 TS 19.1000 -81.7000 85 hurdat_atl main 281 238 O_____________ hurdat_atl AL031938 19.1000 -81.7000 HU 85 2 15 280
1938222N11301 1938 36 NA CS NOT_NAMED 1938-08-12 15:00:00 TS 19.2970 -82.4301 main 238 202 P_____________ AL031938 19.2970 -82.4301 HU 85 2 14 291
1938222N11301 1938 36 NA CS NOT_NAMED 1938-08-12 18:00:00 TS 19.6000 -83.1000 85 hurdat_atl main 203 187 O_____________ hurdat_atl AL031938 19.6000 -83.1000 HU 85 2 14 298
1938222N11301 1938 36 NA CS NOT_NAMED 1938-08-12 21:00:00 TS 19.9622 -83.7578 main 187 156 P_____________ AL031938 19.9622 -83.7578 HU 85 2 15 303
1938222N11301 1938 36 NA CS NOT_NAMED 1938-08-13 00:00:00 TS 20.4000 -84.4000 85 hurdat_atl main 156 112 O_____________ hurdat_atl AL031938 20.4000 -84.4000 HU 85 2 15 307
1938222N11301 1938 36 NA CS NOT_NAMED 1938-08-13 03:00:00 TS 20.8773 -85.0504 main 105 84 P_____________ AL031938 20.8773 -85.0504 HU 85 2 16 309
1938222N11301 1938 36 NA CS NOT_NAMED 1938-08-13 06:00:00 TS 21.4000 -85.7000 85 hurdat_atl main 91 83 O_____________ hurdat_atl AL031938 21.4000 -85.7000 HU 85 2 16 312
1938222N11301 1938 36 NA GM NOT_NAMED 1938-08-13 09:00:00 TS 21.9422 -86.3430 main 83 76 P_____________ AL031938 21.9422 -86.3430 HU 82 1 16 312
1938222N11301 1938 36 NA GM NOT_NAMED 1938-08-13 12:00:00 TS 22.5000 -87.0000 80 hurdat_atl main 111 111 O_____________ hurdat_atl AL031938 22.5000 -87.0000 HU 80 1 17 312
1938222N11301 1938 36 NA GM NOT_NAMED 1938-08-13 15:00:00 TS 23.0496 -87.6782 main 167 167 P_____________ AL031938 23.0496 -87.6782 HU 80 1 17 310
1938222N11301 1938 36 NA GM NOT_NAMED 1938-08-13 18:00:00 TS 23.6000 -88.4000 80 hurdat_atl main 234 234 O_____________ hurdat_atl AL031938 23.6000 -88.4000 HU 80 1 18 308
1938222N11301 1938 36 NA GM NOT_NAMED 1938-08-13 21:00:00 TS 24.1500 -89.2003 main 308 308 P_____________ AL031938 24.1500 -89.2003 HU 77 1 18 307
1938222N11301 1938 36 NA GM NOT_NAMED 1938-08-14 00:00:00 TS 24.7000 -90.0000 75 hurdat_atl main 385 385 O_____________ hurdat_atl AL031938 24.7000 -90.0000 HU 75 1 18 308
1938222N11301 1938 36 NA GM NOT_NAMED 1938-08-14 03:00:00 TS 25.2499 -90.7528 main 435 371 P_____________ AL031938 25.2499 -90.7528 HU 72 1 17 311
1938222N11301 1938 36 NA GM NOT_NAMED 1938-08-14 06:00:00 TS 25.8000 -91.4000 70 hurdat_atl main 371 327 O_____________ hurdat_atl AL031938 25.8000 -91.4000 HU 70 1 15 316
1938222N11301 1938 36 NA GM NOT_NAMED 1938-08-14 09:00:00 TS 26.3346 -91.9107 main 327 281 P_____________ AL031938 26.3346 -91.9107 HU 67 1 14 324
1938222N11301 1938 36 NA GM NOT_NAMED 1938-08-14 12:00:00 TS 26.9000 -92.3000 65 hurdat_atl main 281 225 O_____________ hurdat_atl AL031938 26.9000 -92.3000 HU 65 1 14 332
1938222N11301 1938 36 NA GM NOT_NAMED 1938-08-14 15:00:00 TS 27.5348 -92.6378 main 225 156 P_____________ AL031938 27.5348 -92.6378 HU 65 1 14 338
1938222N11301 1938 36 NA GM NOT_NAMED 1938-08-14 18:00:00 TS 28.2000 -92.9000 65 hurdat_atl main 156 111 O_____________ hurdat_atl AL031938 28.2000 -92.9000 HU 65 1 13 342
1938222N11301 1938 36 NA GM NOT_NAMED 1938-08-14 21:00:00 TS 28.7824 -93.0858 main 101 33 P_____________ AL031938 28.7824 -93.0858 HU 65 1 14 345
1938222N11301 1938 36 NA GM NOT_NAMED 1938-08-15 00:00:00 TS 29.5000 -93.3000 65 hurdat_atl main 33 0 O_____________ hurdat_atl AL031938 29.5000 -93.3000 HU 65 1 16 345
1938222N11301 1938 36 NA GM NOT_NAMED 1938-08-15 01:00:00 TS 29.8000 -93.4000 65 hurdat_atl main 0 0 O_____________ hurdat_atl AL031938 29.8000 -93.4000 L HU 65 1 17 345
1938222N11301 1938 36 NA NA NOT_NAMED 1938-08-15 03:00:00 TS 30.3018 -93.5459 main 0 0 P_____________ AL031938 30.3018 -93.5459 HU 52 0 15 352
1938222N11301 1938 36 NA NA NOT_NAMED 1938-08-15 06:00:00 TS 31.0000 -93.6000 35 hurdat_atl main 0 0 O_____________ hurdat_atl AL031938 31.0000 -93.6000 TS 35 0 16 3
1938222N11301 1938 36 NA NA NOT_NAMED 1938-08-15 09:00:00 TS 31.9200 -93.4572 main 0 0 P_____________ AL031938 31.9200 -93.4572 TS 27 -1 20 10
1938222N11301 1938 36 NA NA NOT_NAMED 1938-08-15 12:00:00 TS 33.0000 -93.2000 20 hurdat_atl main 0 O_____________ hurdat_atl AL031938 33.0000 -93.2000 TD 20 -1 22 11

IBTrACS Databaseについて

本データベースは、米国NOAAが公開する1842年以降の世界の熱帯低気圧のベストトラックデータアーカイブInternational Best Track Archive for Climate Stewardship (IBTrACS)を、ウェブで閲覧しやすい形式に変換したものです。

最終更新日:2021-12-08